createdAt,value
2022-10-29T00:02:30.679Z,102093.06
2022-10-29T00:05:36.195Z,102094.03
2022-10-29T00:08:42.574Z,102099.25
2022-10-29T00:11:46.231Z,102094.88
2022-10-29T00:14:49.868Z,102096.56
2022-10-29T00:17:53.792Z,102097.50
2022-10-29T00:21:04.099Z,102103.78
2022-10-29T00:24:10.717Z,102110.06
2022-10-29T00:27:14.327Z,102110.94
2022-10-29T00:30:19.047Z,102118.78
2022-10-29T00:33:22.781Z,102112.59
2022-10-29T00:36:31.024Z,102117.78
2022-10-29T00:39:34.631Z,102130.03
2022-10-29T00:42:38.302Z,102131.72
2022-10-29T00:45:47.884Z,102130.81
2022-10-29T00:48:56.100Z,102125.50
2022-10-29T00:52:04.298Z,102129.84
2022-10-29T00:55:11.882Z,102129.81
2022-10-29T00:58:15.985Z,102134.94
2022-10-29T01:01:20.150Z,102135.81
2022-10-29T01:04:25.653Z,102129.63
2022-10-29T01:07:31.349Z,102126.09
2022-10-29T01:10:54.940Z,102129.53
2022-10-29T01:14:13.162Z,102141.81
2022-10-29T01:17:28.718Z,102138.28
2022-10-29T01:21:43.794Z,102141.72
2022-10-29T01:25:31.419Z,102144.31
2022-10-29T01:29:01.287Z,102148.75
2022-10-29T01:32:14.878Z,102149.59
2022-10-29T01:35:28.950Z,102146.88
2022-10-29T01:38:42.040Z,102136.34
2022-10-29T01:42:01.058Z,102143.38
2022-10-29T01:45:17.795Z,102147.75
2022-10-29T01:48:33.230Z,102140.00
2022-10-29T01:51:40.656Z,102138.44
2022-10-29T01:54:46.223Z,102136.91
2022-10-29T01:57:50.425Z,102140.63
2022-10-29T02:01:14.713Z,102149.53
2022-10-29T02:04:54.786Z,102124.19
2022-10-29T02:08:15.045Z,102125.22
2022-10-29T02:11:27.098Z,102112.34
2022-10-29T02:14:39.581Z,102109.06
2022-10-29T02:17:43.466Z,102104.94
2022-10-29T02:20:49.067Z,102110.47
2022-10-29T02:23:53.082Z,102104.66
2022-10-29T02:26:56.647Z,102102.06
2022-10-29T02:30:00.234Z,102116.44
2022-10-29T02:33:03.854Z,102110.56
2022-10-29T02:36:10.377Z,102101.09
2022-10-29T02:39:13.942Z,102109.31
2022-10-29T02:42:18.187Z,102116.63
2022-10-29T02:45:21.844Z,102104.44
2022-10-29T02:48:25.391Z,102115.91
2022-10-29T02:51:30.343Z,102113.41
2022-10-29T02:54:34.011Z,102110.88
2022-10-29T02:57:37.731Z,102111.81
2022-10-29T03:00:41.268Z,102116.22
2022-10-29T03:03:44.876Z,102104.94
2022-10-29T03:06:49.806Z,102095.38
2022-10-29T03:09:53.521Z,102096.25
2022-10-29T03:13:00.174Z,102101.59
2022-10-29T03:16:03.902Z,102095.59
2022-10-29T03:19:07.682Z,102086.06
2022-10-29T03:22:12.662Z,102073.88
2022-10-29T03:25:16.441Z,102069.66
2022-10-29T03:28:20.250Z,102078.50
2022-10-29T03:31:23.809Z,102071.78
2022-10-29T03:34:27.469Z,102076.28
2022-10-29T03:37:32.387Z,102074.63
2022-10-29T03:40:36.211Z,102082.50
2022-10-29T03:43:40.987Z,102088.78
2022-10-29T03:46:44.681Z,102087.31
2022-10-29T03:49:48.388Z,102090.91
2022-10-29T03:52:53.509Z,102087.56
2022-10-29T03:55:58.507Z,102078.94
2022-10-29T03:59:02.135Z,102084.34
2022-10-29T04:02:05.917Z,102087.88
2022-10-29T04:05:10.504Z,102084.50
2022-10-29T04:08:15.470Z,102085.44
2022-10-29T04:11:19.278Z,102096.09
2022-10-29T04:14:22.866Z,102103.16
2022-10-29T04:17:26.525Z,102118.09
2022-10-29T04:21:03.086Z,102120.84
2022-10-29T04:27:01.806Z,102126.19
2022-10-29T04:30:42.485Z,102120.13
2022-10-29T04:33:46.436Z,102114.97
2022-10-29T04:36:50.097Z,102111.50
2022-10-29T04:39:55.066Z,102108.94
2022-10-29T04:42:58.846Z,102106.38
2022-10-29T04:46:02.827Z,102114.31
2022-10-29T04:49:07.238Z,102109.09
2022-10-29T04:52:11.049Z,102096.00
2022-10-29T04:55:16.234Z,102106.56
2022-10-29T04:58:21.339Z,102108.56
2022-10-29T05:01:25.220Z,102104.28
2022-10-29T05:04:29.605Z,102104.34
2022-10-29T05:07:33.270Z,102106.88
2022-10-29T05:10:40.978Z,102103.44
2022-10-29T05:13:45.483Z,102104.41
2022-10-29T05:16:49.056Z,102107.94
2022-10-29T05:19:52.605Z,102100.06
2022-10-29T05:23:01.471Z,102102.75
2022-10-29T05:26:06.569Z,102094.91
2022-10-29T05:29:10.167Z,102106.31
2022-10-29T05:32:13.705Z,102108.91
2022-10-29T05:35:17.662Z,102114.16
2022-10-29T05:38:21.692Z,102120.28
2022-10-29T05:41:26.695Z,102118.56
2022-10-29T05:44:30.275Z,102129.97
2022-10-29T05:47:33.989Z,102135.25
2022-10-29T05:50:37.793Z,102134.47
2022-10-29T05:53:41.381Z,102130.16
2022-10-29T05:56:46.376Z,102131.06
2022-10-29T05:59:50.054Z,102127.59
2022-10-29T06:02:54.107Z,102131.16
2022-10-29T06:05:57.964Z,102119.81
2022-10-29T06:09:01.650Z,102112.06
2022-10-29T06:12:07.927Z,102114.66
2022-10-29T06:15:22.821Z,102113.72
2022-10-29T06:18:26.661Z,102112.97
2022-10-29T06:21:30.187Z,102121.72
2022-10-29T06:24:33.876Z,102126.06
2022-10-29T06:27:38.849Z,102124.34
2022-10-29T06:30:47.188Z,102118.34
2022-10-29T06:33:50.762Z,102113.13
2022-10-29T06:36:54.351Z,102107.03
2022-10-29T06:39:57.929Z,102114.94
2022-10-29T06:43:04.798Z,102110.59
2022-10-29T06:46:09.023Z,102114.88
2022-10-29T06:49:12.615Z,102124.34
2022-10-29T06:52:16.194Z,102126.06
2022-10-29T06:55:19.810Z,102126.97
2022-10-29T06:58:25.288Z,102134.78
2022-10-29T07:01:31.740Z,102133.91
2022-10-29T07:04:35.748Z,102129.41
2022-10-29T07:07:39.414Z,102132.81
2022-10-29T07:10:43.135Z,102137.13
2022-10-29T07:13:48.150Z,102132.63
2022-10-29T07:16:51.723Z,102145.72
2022-10-29T07:19:55.492Z,102147.41
2022-10-29T07:23:00.394Z,102151.72
2022-10-29T07:26:04.192Z,102149.09
2022-10-29T07:29:09.223Z,102152.53
2022-10-29T07:32:14.631Z,102149.06
2022-10-29T07:35:18.381Z,102143.78
2022-10-29T07:38:22.126Z,102130.69
2022-10-29T07:41:25.781Z,102125.28
2022-10-29T07:44:34.477Z,102112.84
2022-10-29T07:47:38.157Z,102110.91
2022-10-29T07:50:41.775Z,102114.09
2022-10-29T07:53:45.460Z,102134.78
2022-10-29T07:56:49.165Z,102139.97
2022-10-29T07:59:54.194Z,102116.22
2022-10-29T08:02:58.520Z,102118.53
2022-10-29T08:06:02.062Z,102125.19
2022-10-29T08:09:05.826Z,102129.94
2022-10-29T08:12:12.062Z,102125.00
2022-10-29T08:15:33.093Z,102126.44
2022-10-29T08:18:36.709Z,102133.44
2022-10-29T08:21:40.325Z,102130.84
2022-10-29T08:24:43.885Z,102142.00
2022-10-29T08:27:58.617Z,102148.84
2022-10-29T08:31:03.606Z,102157.69
2022-10-29T08:34:11.058Z,102155.00
2022-10-29T08:37:14.988Z,102152.22
2022-10-29T08:40:30.936Z,102156.50
2022-10-29T08:44:04.706Z,102151.84
2022-10-29T08:47:20.520Z,102133.28
2022-10-29T08:50:30.843Z,102125.06
2022-10-29T08:53:40.662Z,102118.78
2022-10-29T08:56:51.090Z,102127.22
2022-10-29T09:00:05.668Z,102119.28
2022-10-29T09:03:14.071Z,102119.13
2022-10-29T09:06:28.148Z,102112.66
2022-10-29T09:09:40.173Z,102118.31
2022-10-29T09:13:13.092Z,102119.84
2022-10-29T09:16:35.455Z,102120.38
2022-10-29T09:20:02.265Z,102120.88
2022-10-29T09:23:18.914Z,102119.59
2022-10-29T09:26:32.534Z,102112.50
2022-10-29T09:29:59.457Z,102107.75
2022-10-29T09:33:11.435Z,102095.88
2022-10-29T09:36:21.166Z,102094.38
2022-10-29T09:39:34.397Z,102088.03
2022-10-29T09:42:43.775Z,102085.38
2022-10-29T09:45:54.908Z,102089.25
2022-10-29T09:49:12.031Z,102076.56
2022-10-29T09:52:21.742Z,102070.00
2022-10-29T09:55:28.929Z,102082.09
2022-10-29T09:58:32.466Z,102088.75
2022-10-29T10:01:36.702Z,102083.97
2022-10-29T10:04:49.000Z,102077.31
2022-10-29T10:08:11.701Z,102078.63
2022-10-29T10:11:21.231Z,102085.13
2022-10-29T10:14:27.496Z,102076.28
2022-10-29T10:17:56.582Z,102072.81
2022-10-29T10:21:09.517Z,102082.53
2022-10-29T10:24:32.728Z,102085.41
2022-10-29T10:27:36.294Z,102074.84
2022-10-29T10:30:40.071Z,102061.34
2022-10-29T10:33:52.657Z,102055.50
2022-10-29T10:37:03.657Z,102051.50
2022-10-29T10:40:23.296Z,102053.84
2022-10-29T10:43:28.099Z,102047.19
2022-10-29T10:46:36.720Z,102050.72
2022-10-29T10:49:40.906Z,102037.16
2022-10-29T10:52:45.994Z,102024.84
2022-10-29T10:55:55.114Z,102021.44
2022-10-29T10:59:08.926Z,102020.56
2022-10-29T11:02:28.413Z,102017.69
2022-10-29T11:05:38.582Z,102008.38
2022-10-29T11:08:50.766Z,102003.88
2022-10-29T11:12:04.336Z,102011.75
2022-10-29T11:15:19.128Z,101999.97
2022-10-29T11:18:35.052Z,102000.44
2022-10-29T11:21:46.148Z,101984.91
2022-10-29T11:25:00.401Z,101969.66
2022-10-29T11:28:21.496Z,101959.13
2022-10-29T11:31:38.291Z,101960.56
2022-10-29T11:34:54.774Z,101963.03
2022-10-29T11:38:05.878Z,101963.47
2022-10-29T11:41:27.620Z,101955.25
2022-10-29T11:44:40.817Z,101936.78
2022-10-29T11:48:10.419Z,101936.72
2022-10-29T11:51:29.152Z,101931.91
2022-10-29T11:54:50.094Z,101934.00
2022-10-29T11:58:02.882Z,101927.09
2022-10-29T12:01:21.215Z,101934.06
2022-10-29T12:04:33.895Z,101926.31
2022-10-29T12:07:55.826Z,101924.44
2022-10-29T12:11:09.892Z,101923.41
2022-10-29T12:14:28.311Z,101917.69
2022-10-29T12:17:42.543Z,101915.66
2022-10-29T12:20:55.545Z,101922.84
2022-10-29T12:24:16.755Z,101914.09
2022-10-29T12:27:32.522Z,101919.69
2022-10-29T12:30:46.203Z,101916.41
2022-10-29T12:34:02.466Z,101911.56
2022-10-29T12:37:19.775Z,101907.41
2022-10-29T12:40:29.470Z,101907.06
2022-10-29T12:43:37.740Z,101903.97
2022-10-29T12:46:50.387Z,101889.78
2022-10-29T12:50:11.165Z,101882.50
2022-10-29T12:53:30.847Z,101873.56
2022-10-29T12:56:35.315Z,101868.41
2022-10-29T12:59:39.485Z,101872.78
2022-10-29T13:02:46.296Z,101871.19
2022-10-29T13:05:51.429Z,101873.75
2022-10-29T13:08:58.116Z,101875.63
2022-10-29T13:12:03.762Z,101872.41
2022-10-29T13:15:15.620Z,101867.25
2022-10-29T13:18:28.089Z,101883.69
2022-10-29T13:22:09.731Z,101886.97
2022-10-29T13:25:46.386Z,101878.50
2022-10-29T13:28:54.134Z,101866.06
2022-10-29T13:32:03.642Z,101864.09
2022-10-29T13:35:43.076Z,101862.25
2022-10-29T13:39:07.365Z,101856.34
2022-10-29T13:42:14.531Z,101854.59
2022-10-29T13:45:30.378Z,101852.59
2022-10-29T13:48:38.182Z,101843.56
2022-10-29T13:52:00.542Z,101841.44
2022-10-29T13:55:09.966Z,101831.31
2022-10-29T13:58:21.603Z,101837.41
2022-10-29T14:01:28.690Z,101830.97
2022-10-29T14:04:40.486Z,101831.44
2022-10-29T14:07:56.146Z,101818.06
2022-10-29T14:11:10.910Z,101820.69
2022-10-29T14:14:34.028Z,101821.16
2022-10-29T14:17:37.987Z,101823.94
2022-10-29T14:20:41.596Z,101824.91
2022-10-29T14:23:58.690Z,101829.75
2022-10-29T14:27:10.450Z,101828.97
2022-10-29T14:30:20.135Z,101832.50
2022-10-29T14:33:27.092Z,101831.41
2022-10-29T14:36:38.027Z,101835.06
2022-10-29T14:39:57.863Z,101846.47
2022-10-29T14:43:03.789Z,101837.88
2022-10-29T14:46:26.626Z,101835.69
2022-10-29T14:49:32.323Z,101832.22
2022-10-29T14:52:43.742Z,101826.91
2022-10-29T14:55:50.854Z,101822.56
2022-10-29T14:58:56.449Z,101826.22
2022-10-29T15:02:32.279Z,101826.22
2022-10-29T15:05:31.695Z,101827.41
2022-10-29T15:08:41.075Z,101830.97
2022-10-29T15:11:59.623Z,101836.63
2022-10-29T15:15:22.096Z,101828.56
2022-10-29T15:18:27.516Z,101815.03
2022-10-29T15:21:34.499Z,101816.81
2022-10-29T15:24:38.540Z,101824.19
2022-10-29T15:27:42.729Z,101821.88
2022-10-29T15:30:47.747Z,101817.56
2022-10-29T15:33:54.785Z,101820.63
2022-10-29T15:37:00.208Z,101812.94
2022-10-29T15:40:12.239Z,101809.44
2022-10-29T15:43:31.357Z,101807.56
2022-10-29T15:46:51.137Z,101806.28
2022-10-29T15:49:54.775Z,101789.94
2022-10-29T15:53:01.959Z,101803.56
2022-10-29T15:56:06.834Z,101803.03
2022-10-29T15:59:14.795Z,101786.78
2022-10-29T16:02:20.045Z,101794.09
2022-10-29T16:05:23.784Z,101799.50
2022-10-29T16:08:31.205Z,101806.03
2022-10-29T16:11:36.444Z,101802.22
2022-10-29T16:14:40.107Z,101791.25
2022-10-29T16:17:45.217Z,101803.94
2022-10-29T16:20:50.163Z,101801.78
2022-10-29T16:23:55.211Z,101804.84
2022-10-29T16:26:58.838Z,101795.19
2022-10-29T16:30:02.460Z,101797.28
2022-10-29T16:33:07.918Z,101799.13
2022-10-29T16:36:11.933Z,101809.72
2022-10-29T16:39:15.511Z,101801.00
2022-10-29T16:42:36.993Z,101795.84
2022-10-29T16:45:40.796Z,101801.25
2022-10-29T16:48:45.762Z,101801.38
2022-10-29T16:51:49.364Z,101805.94
2022-10-29T16:54:52.923Z,101806.94
2022-10-29T16:57:57.123Z,101804.63
2022-10-29T17:01:06.669Z,101807.56
2022-10-29T17:04:11.808Z,101811.13
2022-10-29T17:07:15.420Z,101810.34
2022-10-29T17:10:19.403Z,101815.69
2022-10-29T17:13:23.018Z,101815.69
2022-10-29T17:16:26.663Z,101803.31
2022-10-29T17:19:31.810Z,101817.28
2022-10-29T17:22:35.499Z,101806.81
2022-10-29T17:25:41.719Z,101806.09
2022-10-29T17:28:45.621Z,101800.59
2022-10-29T17:31:49.927Z,101803.94
2022-10-29T17:34:54.947Z,101801.47
2022-10-29T17:37:58.543Z,101813.13
2022-10-29T17:41:02.258Z,101818.50
2022-10-29T17:44:06.263Z,101806.44
2022-10-29T17:47:11.179Z,101813.72
2022-10-29T17:50:16.401Z,101822.56
2022-10-29T17:53:20.948Z,101822.56
2022-10-29T17:56:26.019Z,101828.00
2022-10-29T17:59:29.937Z,101822.00
2022-10-29T18:02:33.633Z,101827.16
2022-10-29T18:05:39.465Z,101820.22
2022-10-29T18:08:46.546Z,101822.81
2022-10-29T18:11:50.860Z,101815.94
2022-10-29T18:14:54.574Z,101813.38
2022-10-29T18:18:01.203Z,101821.09
2022-10-29T18:21:08.430Z,101820.28
2022-10-29T18:24:12.571Z,101810.94
2022-10-29T18:27:16.246Z,101814.69
2022-10-29T18:30:22.827Z,101820.88
2022-10-29T18:33:27.384Z,101819.06
2022-10-29T18:36:33.009Z,101821.69
2022-10-29T18:39:36.573Z,101817.56
2022-10-29T18:42:40.253Z,101816.75
2022-10-29T18:45:43.906Z,101816.97
2022-10-29T18:48:49.895Z,101815.34
2022-10-29T18:51:56.314Z,101812.91
2022-10-29T18:54:59.964Z,101814.00
2022-10-29T18:58:03.665Z,101814.06
2022-10-29T19:01:10.333Z,101817.75
2022-10-29T19:04:16.960Z,101818.00
2022-10-29T19:07:21.952Z,101810.34
2022-10-29T19:10:25.689Z,101809.47
2022-10-29T19:13:29.221Z,101816.88
2022-10-29T19:16:34.241Z,101813.63
2022-10-29T19:19:37.810Z,101804.97
2022-10-29T19:22:43.086Z,101804.28
2022-10-29T19:25:46.609Z,101800.94
2022-10-29T19:28:50.268Z,101798.50
2022-10-29T19:31:53.865Z,101793.28
2022-10-29T19:34:57.384Z,101796.09
2022-10-29T19:38:02.499Z,101791.66
2022-10-29T19:41:07.551Z,101787.63
2022-10-29T19:44:11.260Z,101781.47
2022-10-29T19:47:15.914Z,101786.13
2022-10-29T19:50:19.772Z,101790.47
2022-10-29T19:53:25.079Z,101782.88
2022-10-29T19:56:29.009Z,101776.00
2022-10-29T19:59:32.603Z,101776.03
2022-10-29T20:02:36.398Z,101771.72
2022-10-29T20:05:40.724Z,101777.16
2022-10-29T20:08:46.082Z,101778.03
2022-10-29T20:11:49.791Z,101775.59
2022-10-29T20:14:53.515Z,101780.81
2022-10-29T20:17:57.487Z,101785.31
2022-10-29T20:21:01.500Z,101781.94
2022-10-29T20:24:07.321Z,101772.31
2022-10-29T20:27:12.166Z,101776.03
2022-10-29T20:30:15.855Z,101768.16
2022-10-29T20:33:19.587Z,101764.34
2022-10-29T20:36:25.290Z,101761.16
2022-10-29T20:39:33.274Z,101761.16
2022-10-29T20:42:37.217Z,101758.56
2022-10-29T20:45:40.846Z,101759.53
2022-10-29T20:48:44.402Z,101762.88
2022-10-29T20:51:48.017Z,101757.84
2022-10-29T20:54:52.976Z,101759.75
2022-10-29T20:57:56.881Z,101761.50
2022-10-29T21:01:07.507Z,101748.53
2022-10-29T21:04:11.222Z,101746.06
2022-10-29T21:07:14.934Z,101742.47
2022-10-29T21:10:20.249Z,101742.38
2022-10-29T21:13:23.810Z,101733.50
2022-10-29T21:16:29.362Z,101734.38
2022-10-29T21:19:33.193Z,101731.69
2022-10-29T21:22:36.662Z,101735.97
2022-10-29T21:25:41.602Z,101735.25
2022-10-29T21:28:45.783Z,101737.97
2022-10-29T21:31:49.996Z,101731.81
2022-10-29T21:34:53.606Z,101738.88
2022-10-29T21:37:57.385Z,101737.97
2022-10-29T21:41:03.177Z,101735.47
2022-10-29T21:44:06.990Z,101732.81
2022-10-29T21:47:10.766Z,101729.34
2022-10-29T21:50:14.309Z,101723.13
2022-10-29T21:53:17.917Z,101718.81
2022-10-29T21:56:23.170Z,101728.41
2022-10-29T21:59:26.755Z,101723.06
2022-10-29T22:02:30.406Z,101723.22
2022-10-29T22:05:34.085Z,101716.28
2022-10-29T22:08:37.906Z,101709.09
2022-10-29T22:11:43.339Z,101717.94
2022-10-29T22:14:47.680Z,101713.63
2022-10-29T22:17:51.301Z,101713.63
2022-10-29T22:21:05.831Z,101705.63
2022-10-29T22:24:11.165Z,101705.69
2022-10-29T22:27:16.294Z,101700.47
2022-10-29T22:30:19.804Z,101714.44
2022-10-29T22:33:23.442Z,101710.16
2022-10-29T22:36:28.665Z,101706.75
2022-10-29T22:39:32.194Z,101723.63
2022-10-29T22:42:37.140Z,101740.50
2022-10-29T22:45:40.839Z,101752.88
2022-10-29T22:48:45.163Z,101754.81
2022-10-29T22:51:48.697Z,101753.28
2022-10-29T22:54:52.315Z,101756.97
2022-10-29T22:57:58.795Z,101750.19
2022-10-29T23:01:05.805Z,101759.03
2022-10-29T23:04:09.398Z,101751.25
2022-10-29T23:07:13.002Z,101746.03
2022-10-29T23:10:16.763Z,101747.97
2022-10-29T23:13:22.256Z,101743.78
2022-10-29T23:16:28.088Z,101749.19
2022-10-29T23:19:31.699Z,101743.25
2022-10-29T23:22:35.397Z,101735.59
2022-10-29T23:25:42.420Z,101734.09
2022-10-29T23:28:49.003Z,101725.44
2022-10-29T23:31:52.628Z,101717.59
2022-10-29T23:34:56.293Z,101715.88
2022-10-29T23:38:00.384Z,101709.78
2022-10-29T23:41:05.026Z,101702.66
2022-10-29T23:44:09.958Z,101697.03
2022-10-29T23:47:13.678Z,101701.22
2022-10-29T23:50:17.511Z,101696.69
2022-10-29T23:53:21.395Z,101694.59
2022-10-29T23:56:25.018Z,101702.28
2022-10-29T23:59:30.203Z,101696.03
